Time;durP1;ratioP1;P1;durP2;ratioP2;P2;SDS_P1;SDS_P2;PMS_P1;PMS_P2;Temp;Humidity;BMP_temperature;BMP_pressure;BME280_temperature;BME280_humidity;BME280_pressure;Samples;Min_cycle;Max_cycle;Signal;HPM_P1;HPM_P2
2023/09/06 00:01:00;;;;;;;;;11.60;11.60;;;;;;;;5070318;28;8819;-80
2023/09/06 00:03:27;;;;;;;;;12.40;12.40;;;;;;;;5071890;28;8874;-79
2023/09/06 00:05:55;;;;;;;;;13.00;11.60;;;;;;;;5065648;28;8837;-76
2023/09/06 00:08:22;;;;;;;;;12.60;10.60;;;;;;;;5069775;28;8828;-76
2023/09/06 00:10:49;;;;;;;;;12.40;12.40;;;;;;;;5075815;28;9022;-80
2023/09/06 00:13:17;;;;;;;;;10.20;10.20;;;;;;;;5072688;28;8841;-77
2023/09/06 00:15:45;;;;;;;;;11.20;11.20;;;;;;;;5059026;28;8848;-78
2023/09/06 00:18:13;;;;;;;;;10.40;10.40;;;;;;;;5070979;28;8840;-80
2023/09/06 00:20:41;;;;;;;;;14.80;13.00;;;;;;;;5071557;28;8828;-80
2023/09/06 00:23:09;;;;;;;;;9.20;9.20;;;;;;;;5070984;28;9693;-80
2023/09/06 00:25:37;;;;;;;;;9.60;9.60;;;;;;;;5071535;28;9631;-77
2023/09/06 00:28:06;;;;;;;;;11.60;9.60;;;;;;;;5071424;28;8840;-81
2023/09/06 00:30:33;;;;;;;;;10.80;10.80;;;;;;;;5070898;28;8833;-77
2023/09/06 00:33:03;;;;;;;;;11.00;11.00;;;;;;;;5071093;28;8871;-76
2023/09/06 00:35:32;;;;;;;;;13.00;10.60;;;;;;;;5071280;28;8893;-77
2023/09/06 00:38:04;;;;;;;;;10.40;10.40;;;;;;;;5071114;28;9455;-79
2023/09/06 00:40:31;;;;;;;;;12.00;12.00;;;;;;;;5071728;28;8844;-80
2023/09/06 00:43:00;;;;;;;;;11.40;9.60;;;;;;;;5070861;28;8971;-77
2023/09/06 00:45:30;;;;;;;;;10.40;10.40;;;;;;;;5070922;28;8859;-82
2023/09/06 00:47:57;;;;;;;;;9.20;9.20;;;;;;;;5071223;28;8848;-80
2023/09/06 00:50:26;;;;;;;;;9.60;9.60;;;;;;;;5071079;28;8967;-77
2023/09/06 00:52:54;;;;;;;;;12.20;12.20;;;;;;;;5070282;28;8898;-78
2023/09/06 00:55:22;;;;;;;;;10.60;9.40;;;;;;;;5070604;28;9038;-76
2023/09/06 00:57:50;;;;;;;;;11.00;10.80;;;;;;;;5070116;28;8844;-77
2023/09/06 01:00:20;;;;;;;;;8.60;8.60;;;;;;;;5070851;28;8971;-77
2023/09/06 01:02:47;;;;;;;;;13.20;10.20;;;;;;;;5071377;28;8852;-77
2023/09/06 01:05:15;;;;;;;;;7.60;7.60;;;;;;;;5070932;28;8866;-80
2023/09/06 01:07:47;;;;;;;;;12.00;11.00;;;;;;;;5071067;28;8970;-77
2023/09/06 01:10:15;;;;;;;;;12.40;12.40;;;;;;;;5070305;28;8844;-76
2023/09/06 01:12:42;;;;;;;;;11.00;10.80;;;;;;;;5070718;28;8867;-77
2023/09/06 01:15:12;;;;;;;;;10.20;10.20;;;;;;;;5070410;28;8872;-77
2023/09/06 01:17:41;;;;;;;;;12.60;11.60;;;;;;;;5070662;28;8860;-76
2023/09/06 01:20:15;;;;;;;;;11.60;10.60;;;;;;;;5070596;28;8902;-76
2023/09/06 01:22:48;;;;;;;;;11.40;9.40;;;;;;;;5063143;28;8845;-80
2023/09/06 01:25:16;;;;;;;;;11.00;10.80;;;;;;;;5070731;28;8875;-79
2023/09/06 01:27:44;;;;;;;;;9.20;9.20;;;;;;;;5070037;28;8856;-76
2023/09/06 01:30:12;;;;;;;;;12.00;12.00;;;;;;;;5070808;28;8836;-77
2023/09/06 01:32:40;;;;;;;;;12.20;12.20;;;;;;;;5069708;28;8878;-79
2023/09/06 01:35:11;;;;;;;;;11.60;11.20;;;;;;;;5071207;28;8975;-78
2023/09/06 01:37:38;;;;;;;;;12.00;11.60;;;;;;;;5071230;28;8840;-77
2023/09/06 01:40:17;;;;;;;;;9.20;9.20;;;;;;;;5072744;28;8979;-80
2023/09/06 01:42:46;;;;;;;;;10.60;10.60;;;;;;;;5073794;28;8876;-79
2023/09/06 01:45:17;;;;;;;;;14.20;10.80;;;;;;;;5074743;28;8852;-78
2023/09/06 01:47:44;;;;;;;;;12.20;12.20;;;;;;;;5074649;28;8947;-81
2023/09/06 01:50:14;;;;;;;;;10.00;10.00;;;;;;;;5075493;28;8844;-77
2023/09/06 01:52:42;;;;;;;;;12.00;10.60;;;;;;;;5068960;28;8868;-77
2023/09/06 01:55:10;;;;;;;;;7.80;7.80;;;;;;;;5069627;28;8982;-80
2023/09/06 01:57:37;;;;;;;;;10.80;10.80;;;;;;;;5069194;28;8964;-76
2023/09/06 02:00:19;;;;;;;;;8.80;8.80;;;;;;;;5069386;28;9630;-78
2023/09/06 02:02:47;;;;;;;;;9.80;9.80;;;;;;;;5069127;28;8821;-76
2023/09/06 02:05:14;;;;;;;;;10.60;10.60;;;;;;;;5069715;28;8954;-79
2023/09/06 02:07:42;;;;;;;;;11.00;10.40;;;;;;;;5069269;28;8894;-79
2023/09/06 02:10:10;;;;;;;;;10.40;10.40;;;;;;;;5069592;28;8855;-79
2023/09/06 02:12:38;;;;;;;;;11.40;11.00;;;;;;;;5068916;28;8859;-76
2023/09/06 02:15:08;;;;;;;;;11.60;10.20;;;;;;;;5070237;28;8898;-76
2023/09/06 02:17:36;;;;;;;;;12.00;11.60;;;;;;;;5068131;28;8872;-76
2023/09/06 02:20:12;;;;;;;;;15.40;14.60;;;;;;;;5069606;28;9614;-76
2023/09/06 02:22:40;;;;;;;;;15.20;12.80;;;;;;;;5069255;28;8949;-79
2023/09/06 02:25:09;;;;;;;;;7.20;7.20;;;;;;;;5067027;28;8975;-76
2023/09/06 02:27:36;;;;;;;;;9.60;9.60;;;;;;;;5059111;28;8864;-77
2023/09/06 02:30:06;;;;;;;;;12.20;11.00;;;;;;;;5066947;28;8812;-79
2023/09/06 02:32:34;;;;;;;;;8.80;8.80;;;;;;;;5069078;28;8902;-75
2023/09/06 02:35:01;;;;;;;;;11.40;8.20;;;;;;;;5068317;28;8857;-75
2023/09/06 02:37:29;;;;;;;;;11.00;10.00;;;;;;;;5060362;28;8886;-80
2023/09/06 02:39:56;;;;;;;;;12.40;10.40;;;;;;;;5068407;28;8936;-76
2023/09/06 02:42:23;;;;;;;;;10.00;10.00;;;;;;;;5068252;28;8899;-77
2023/09/06 02:44:50;;;;;;;;;8.00;8.00;;;;;;;;5069090;28;8841;-79
2023/09/06 02:47:25;;;;;;;;;8.60;8.60;;;;;;;;5068887;28;8863;-78
2023/09/06 02:49:55;;;;;;;;;7.80;7.80;;;;;;;;5067989;28;9595;-80
2023/09/06 02:52:28;;;;;;;;;9.20;8.20;;;;;;;;5068782;28;8852;-76
2023/09/06 02:54:57;;;;;;;;;8.00;8.00;;;;;;;;5068404;28;8840;-76
2023/09/06 02:57:26;;;;;;;;;8.80;8.80;;;;;;;;5068888;28;8913;-76
2023/09/06 02:59:53;;;;;;;;;9.00;9.00;;;;;;;;5068324;28;8882;-77
2023/09/06 03:02:22;;;;;;;;;7.80;7.80;;;;;;;;5068153;28;8820;-79
2023/09/06 03:04:54;;;;;;;;;7.80;7.80;;;;;;;;5068351;28;8844;-78
2023/09/06 03:07:22;;;;;;;;;8.40;8.00;;;;;;;;5068736;28;8852;-79
2023/09/06 03:09:50;;;;;;;;;8.00;8.00;;;;;;;;5068617;28;8864;-76
2023/09/06 03:12:17;;;;;;;;;9.60;9.60;;;;;;;;5068556;28;8868;-76
2023/09/06 03:14:47;;;;;;;;;11.00;8.00;;;;;;;;5069647;28;8860;-79
2023/09/06 03:17:18;;;;;;;;;7.00;6.80;;;;;;;;5071412;28;8844;-76
2023/09/06 03:19:48;;;;;;;;;7.80;7.80;;;;;;;;5072329;28;8845;-77
2023/09/06 03:22:15;;;;;;;;;7.60;7.60;;;;;;;;5072358;28;8868;-76
2023/09/06 03:24:43;;;;;;;;;7.80;7.80;;;;;;;;5072328;28;8860;-77
2023/09/06 03:27:16;;;;;;;;;9.00;9.00;;;;;;;;5072789;28;8833;-78
2023/09/06 03:29:50;;;;;;;;;8.00;8.00;;;;;;;;5069092;28;9622;-80
2023/09/06 03:32:18;;;;;;;;;8.50;8.50;;;;;;;;5066840;28;8816;-76
2023/09/06 03:34:47;;;;;;;;;9.25;9.25;;;;;;;;5068184;28;8867;-81
2023/09/06 03:37:18;;;;;;;;;9.75;8.00;;;;;;;;5071851;28;8842;-76
2023/09/06 03:39:47;;;;;;;;;11.50;9.00;;;;;;;;5074372;28;8876;-78
2023/09/06 03:42:15;;;;;;;;;10.25;10.25;;;;;;;;5067889;28;8852;-79
2023/09/06 03:44:46;;;;;;;;;10.75;8.00;;;;;;;;5068509;28;8918;-78
2023/09/06 03:47:14;;;;;;;;;14.75;11.50;;;;;;;;5066591;28;8913;-82
2023/09/06 03:49:43;;;;;;;;;5.75;5.75;;;;;;;;5067178;28;8844;-83
2023/09/06 03:52:16;;;;;;;;;9.00;7.50;;;;;;;;5067739;28;9607;-77
2023/09/06 03:54:43;;;;;;;;;9.50;9.50;;;;;;;;5068138;28;8859;-76
2023/09/06 03:57:12;;;;;;;;;11.75;10.00;;;;;;;;5068567;28;8836;-77
2023/09/06 03:59:40;;;;;;;;;7.00;6.50;;;;;;;;5068939;28;8874;-81
2023/09/06 04:02:13;;;;;;;;;9.75;9.75;;;;;;;;5078688;28;8813;-82
2023/09/06 04:04:40;;;;;;;;;9.75;9.00;;;;;;;;5069458;28;8957;-82
2023/09/06 04:07:07;;;;;;;;;11.75;9.75;;;;;;;;5067650;28;8966;-80
2023/09/06 04:09:37;;;;;;;;;6.75;6.75;;;;;;;;5067107;28;9595;-81
2023/09/06 04:12:05;;;;;;;;;10.00;9.25;;;;;;;;5067427;28;8952;-81
2023/09/06 04:14:35;;;;;;;;;10.75;10.75;;;;;;;;5066582;28;8906;-80
2023/09/06 04:17:07;;;;;;;;;11.25;11.25;;;;;;;;5067504;28;9670;-81
2023/09/06 04:19:34;;;;;;;;;9.25;9.00;;;;;;;;5066864;28;9376;-81
2023/09/06 04:22:02;;;;;;;;;8.00;8.00;;;;;;;;5067866;28;9632;-80
2023/09/06 04:24:29;;;;;;;;;8.50;8.50;;;;;;;;5068556;28;8898;-80
2023/09/06 04:26:59;;;;;;;;;11.00;11.00;;;;;;;;5070260;28;8855;-80
2023/09/06 04:29:26;;;;;;;;;9.25;9.25;;;;;;;;5066772;28;8844;-80
2023/09/06 04:31:54;;;;;;;;;11.75;10.75;;;;;;;;5066303;28;8855;-80
2023/09/06 04:34:22;;;;;;;;;12.00;10.75;;;;;;;;5066929;28;8856;-79
2023/09/06 04:36:49;;;;;;;;;8.50;8.50;;;;;;;;5066550;28;8893;-79
2023/09/06 04:39:17;;;;;;;;;11.00;11.00;;;;;;;;5066969;28;8844;-79
2023/09/06 04:41:46;;;;;;;;;5.75;5.25;;;;;;;;5066648;28;8883;-78
2023/09/06 04:44:17;;;;;;;;;10.25;10.25;;;;;;;;5067484;28;8983;-80
2023/09/06 04:46:44;;;;;;;;;10.00;10.00;;;;;;;;5067388;28;9614;-80
2023/09/06 04:49:11;;;;;;;;;10.75;10.75;;;;;;;;5067879;28;9135;-79
2023/09/06 04:51:39;;;;;;;;;11.00;9.25;;;;;;;;5069556;28;8974;-79
2023/09/06 04:54:09;;;;;;;;;8.75;8.75;;;;;;;;5074961;28;8884;-79
2023/09/06 04:56:36;;;;;;;;;10.50;10.50;;;;;;;;5075758;28;8864;-79
2023/09/06 04:59:03;;;;;;;;;9.75;9.75;;;;;;;;5068527;28;8855;-79
2023/09/06 05:01:32;;;;;;;;;13.00;10.25;;;;;;;;5074222;28;8911;-79
2023/09/06 05:03:59;;;;;;;;;9.75;9.75;;;;;;;;5076241;28;8951;-78
2023/09/06 05:06:29;;;;;;;;;10.00;10.00;;;;;;;;5071966;28;8861;-78
2023/09/06 05:08:56;;;;;;;;;8.75;8.75;;;;;;;;5070628;28;8852;-78
2023/09/06 05:11:23;;;;;;;;;8.00;8.00;;;;;;;;5069290;28;9756;-78
2023/09/06 05:13:50;;;;;;;;;9.50;9.50;;;;;;;;5070123;28;8975;-82
2023/09/06 05:16:18;;;;;;;;;10.25;10.25;;;;;;;;5069883;28;8949;-85
2023/09/06 05:19:03;;;;;;;;;9.75;9.75;;;;;;;;5071413;28;8824;-84
2023/09/06 05:21:30;;;;;;;;;9.00;9.00;;;;;;;;5050951;28;8841;-85
2023/09/06 05:23:58;;;;;;;;;11.00;9.00;;;;;;;;5059632;28;8841;-81
2023/09/06 05:26:25;;;;;;;;;13.00;11.75;;;;;;;;5075601;28;8890;-80
2023/09/06 05:28:52;;;;;;;;;11.00;11.00;;;;;;;;5072255;28;8919;-83
2023/09/06 05:31:20;;;;;;;;;10.00;10.00;;;;;;;;5073600;28;8803;-85
2023/09/06 05:33:49;;;;;;;;;9.25;9.25;;;;;;;;5072678;28;8882;-78
2023/09/06 05:36:18;;;;;;;;;12.00;10.25;;;;;;;;5071325;28;8970;-80
2023/09/06 05:38:46;;;;;;;;;8.50;8.50;;;;;;;;5070003;28;9696;-79
2023/09/06 05:41:13;;;;;;;;;9.00;8.50;;;;;;;;5069799;28;9086;-79
2023/09/06 05:43:40;;;;;;;;;8.00;8.00;;;;;;;;5069134;28;8955;-83
2023/09/06 05:46:07;;;;;;;;;10.00;10.00;;;;;;;;5070316;28;8882;-80
2023/09/06 05:48:35;;;;;;;;;10.00;10.00;;;;;;;;5069645;28;8860;-80
2023/09/06 05:51:02;;;;;;;;;10.00;10.00;;;;;;;;5069392;28;8868;-77
2023/09/06 05:53:30;;;;;;;;;9.00;9.00;;;;;;;;5068984;28;8860;-77
2023/09/06 05:55:58;;;;;;;;;11.50;11.50;;;;;;;;5069613;28;8882;-77
2023/09/06 05:58:25;;;;;;;;;11.50;11.50;;;;;;;;5068300;28;9666;-78
2023/09/06 06:00:56;;;;;;;;;10.00;10.00;;;;;;;;5068785;28;8781;-77
2023/09/06 06:03:24;;;;;;;;;12.00;12.00;;;;;;;;5069406;28;8864;-78
2023/09/06 06:05:55;;;;;;;;;11.00;8.40;;;;;;;;5069161;28;8876;-78
2023/09/06 06:08:25;;;;;;;;;6.20;6.20;;;;;;;;5070127;28;8888;-80
2023/09/06 06:10:54;;;;;;;;;8.80;8.80;;;;;;;;5080937;28;8952;-79
2023/09/06 06:13:21;;;;;;;;;11.00;9.75;;;;;;;;5069117;28;8922;-78
2023/09/06 06:15:49;;;;;;;;;8.20;8.20;;;;;;;;5068854;28;8848;-78
2023/09/06 06:18:19;;;;;;;;;10.00;10.00;;;;;;;;5069895;28;8864;-78
2023/09/06 06:20:49;;;;;;;;;9.40;9.40;;;;;;;;5069655;28;8955;-78
2023/09/06 06:23:16;;;;;;;;;9.80;9.40;;;;;;;;5072045;28;8844;-81
2023/09/06 06:25:44;;;;;;;;;11.20;11.20;;;;;;;;5070518;28;8860;-82
2023/09/06 06:28:12;;;;;;;;;5.80;5.80;;;;;;;;5071968;28;8896;-79
2023/09/06 06:30:40;;;;;;;;;7.60;7.60;;;;;;;;5072157;28;8895;-79
2023/09/06 06:33:09;;;;;;;;;7.60;7.60;;;;;;;;5074422;28;8844;-85
2023/09/06 06:35:36;;;;;;;;;7.60;7.60;;;;;;;;5073842;28;8860;-80
2023/09/06 06:38:03;;;;;;;;;8.00;8.00;;;;;;;;5073276;28;8860;-79
2023/09/06 06:40:30;;;;;;;;;8.20;8.20;;;;;;;;5069914;28;8860;-79
2023/09/06 06:43:00;;;;;;;;;8.00;8.00;;;;;;;;5069463;28;9674;-78
2023/09/06 06:45:29;;;;;;;;;7.00;7.00;;;;;;;;5068953;28;8852;-81
2023/09/06 06:47:56;;;;;;;;;7.20;7.20;;;;;;;;5069703;28;8856;-81
2023/09/06 06:50:23;;;;;;;;;7.80;7.00;;;;;;;;5069246;28;8853;-79
2023/09/06 06:52:51;;;;;;;;;6.20;6.20;;;;;;;;5069475;28;8845;-80
2023/09/06 06:55:21;;;;;;;;;4.40;4.40;;;;;;;;5068661;28;8864;-76
2023/09/06 06:57:50;;;;;;;;;7.00;6.00;;;;;;;;5068051;28;8853;-77
2023/09/06 07:00:18;;;;;;;;;10.40;10.40;;;;;;;;5068294;28;8852;-77
2023/09/06 07:02:47;;;;;;;;;8.80;8.80;;;;;;;;5067813;28;8848;-78
2023/09/06 07:05:14;;;;;;;;;7.20;6.00;;;;;;;;5068440;28;8856;-79
2023/09/06 07:07:42;;;;;;;;;6.00;6.00;;;;;;;;5068339;28;8858;-77
2023/09/06 07:10:10;;;;;;;;;6.00;6.00;;;;;;;;5069160;28;8897;-77
2023/09/06 07:12:37;;;;;;;;;6.80;6.80;;;;;;;;5067800;28;9677;-77
2023/09/06 07:15:06;;;;;;;;;7.00;7.00;;;;;;;;5068164;28;8986;-78
2023/09/06 07:17:33;;;;;;;;;8.40;5.00;;;;;;;;5066941;28;8856;-78
2023/09/06 07:20:05;;;;;;;;;8.40;6.60;;;;;;;;5067655;28;8845;-77
2023/09/06 07:22:32;;;;;;;;;8.40;8.40;;;;;;;;5067343;28;8840;-77
2023/09/06 07:24:59;;;;;;;;;7.40;7.40;;;;;;;;5069148;28;8888;-77
2023/09/06 07:27:26;;;;;;;;;8.00;6.80;;;;;;;;5067077;28;8871;-77
2023/09/06 07:29:54;;;;;;;;;9.20;9.20;;;;;;;;5068536;28;8868;-78
2023/09/06 07:32:21;;;;;;;;;6.80;6.80;;;;;;;;5066370;28;8807;-78
2023/09/06 07:34:48;;;;;;;;;8.00;8.00;;;;;;;;5067845;28;8857;-79
2023/09/06 07:37:17;;;;;;;;;8.80;7.20;;;;;;;;5067302;28;8856;-77
2023/09/06 07:39:44;;;;;;;;;8.20;7.00;;;;;;;;5067698;28;8856;-77
2023/09/06 07:42:11;;;;;;;;;7.20;7.20;;;;;;;;5067089;28;8833;-78
2023/09/06 07:44:38;;;;;;;;;5.00;5.00;;;;;;;;5067402;28;8845;-78
2023/09/06 07:47:05;;;;;;;;;7.20;7.20;;;;;;;;5067701;28;8867;-77
2023/09/06 07:49:35;;;;;;;;;7.80;6.20;;;;;;;;5066916;28;8933;-77
2023/09/06 07:52:04;;;;;;;;;7.20;7.20;;;;;;;;5067586;28;8856;-78
2023/09/06 07:54:33;;;;;;;;;8.80;7.20;;;;;;;;5067252;28;9528;-77
2023/09/06 07:57:00;;;;;;;;;9.40;7.20;;;;;;;;5059660;28;8864;-77
2023/09/06 07:59:28;;;;;;;;;4.20;4.20;;;;;;;;5062776;28;8959;-78
2023/09/06 08:01:55;;;;;;;;;7.00;5.60;;;;;;;;5067917;28;8816;-77
2023/09/06 08:04:22;;;;;;;;;6.00;6.00;;;;;;;;5069195;28;8837;-76
2023/09/06 08:06:49;;;;;;;;;7.20;7.20;;;;;;;;5071373;28;8816;-77
2023/09/06 08:09:17;;;;;;;;;6.20;6.20;;;;;;;;5071310;28;8868;-77
2023/09/06 08:11:45;;;;;;;;;6.40;6.40;;;;;;;;5071063;28;8890;-76
2023/09/06 08:14:12;;;;;;;;;5.20;5.20;;;;;;;;5071598;28;8937;-78
2023/09/06 08:16:40;;;;;;;;;7.60;7.60;;;;;;;;5069781;28;9223;-77
2023/09/06 08:19:07;;;;;;;;;6.00;6.00;;;;;;;;5067358;28;8967;-77
2023/09/06 08:21:35;;;;;;;;;9.40;6.80;;;;;;;;5066923;28;8872;-79
2023/09/06 08:24:03;;;;;;;;;7.00;7.00;;;;;;;;5066629;28;8859;-80
2023/09/06 08:26:31;;;;;;;;;5.40;5.40;;;;;;;;5067303;28;8861;-81
2023/09/06 08:29:00;;;;;;;;;4.60;4.60;;;;;;;;5070825;28;8872;-82
2023/09/06 08:31:27;;;;;;;;;6.00;6.00;;;;;;;;5070753;28;8812;-82
2023/09/06 08:33:54;;;;;;;;;5.00;5.00;;;;;;;;5071082;28;8851;-77
2023/09/06 08:36:22;;;;;;;;;5.40;5.40;;;;;;;;5070746;28;8860;-80
2023/09/06 08:38:51;;;;;;;;;7.20;6.00;;;;;;;;5073255;28;9627;-79
2023/09/06 08:41:20;;;;;;;;;5.40;5.40;;;;;;;;5073479;28;8852;-78
2023/09/06 08:43:48;;;;;;;;;5.00;5.00;;;;;;;;5073829;28;8840;-77
2023/09/06 08:46:22;;;;;;;;;6.20;6.20;;;;;;;;5073253;28;8896;-78
2023/09/06 08:48:49;;;;;;;;;5.20;5.20;;;;;;;;5071643;28;8879;-77
2023/09/06 08:51:18;;;;;;;;;6.00;6.00;;;;;;;;5070466;28;8848;-77
2023/09/06 08:53:45;;;;;;;;;5.40;5.40;;;;;;;;5071509;28;8856;-78
2023/09/06 08:56:15;;;;;;;;;4.00;4.00;;;;;;;;5069885;28;8871;-79
2023/09/06 08:58:43;;;;;;;;;5.00;5.00;;;;;;;;5070499;28;8868;-78
2023/09/06 09:01:10;;;;;;;;;10.20;5.40;;;;;;;;5068905;28;8888;-78
2023/09/06 09:03:38;;;;;;;;;6.40;6.40;;;;;;;;5070929;28;8840;-80
2023/09/06 09:06:08;;;;;;;;;5.40;5.40;;;;;;;;5073627;28;8848;-82
2023/09/06 09:08:36;;;;;;;;;5.40;5.40;;;;;;;;5072073;28;8837;-81
2023/09/06 09:11:11;;;;;;;;;5.60;4.60;;;;;;;;5069288;28;8955;-78
2023/09/06 09:13:38;;;;;;;;;5.00;5.00;;;;;;;;5070388;28;8848;-78
2023/09/06 09:16:09;;;;;;;;;5.00;5.00;;;;;;;;5069781;28;8872;-79
2023/09/06 09:18:41;;;;;;;;;4.20;4.20;;;;;;;;5070378;28;9074;-77
2023/09/06 09:21:10;;;;;;;;;6.40;6.40;;;;;;;;5070557;28;8874;-78
2023/09/06 09:23:44;;;;;;;;;7.20;5.60;;;;;;;;5070212;28;8871;-78
2023/09/06 09:26:11;;;;;;;;;3.80;3.80;;;;;;;;5071107;28;8871;-78
2023/09/06 09:28:41;;;;;;;;;5.40;5.40;;;;;;;;5069330;28;8870;-78
2023/09/06 09:31:13;;;;;;;;;6.40;6.40;;;;;;;;5069714;28;8808;-78
2023/09/06 09:33:43;;;;;;;;;6.00;6.00;;;;;;;;5069657;28;9666;-78
2023/09/06 09:36:10;;;;;;;;;6.00;6.00;;;;;;;;5070344;28;9394;-78
2023/09/06 09:38:42;;;;;;;;;6.00;4.60;;;;;;;;5070172;28;8874;-78
2023/09/06 09:41:10;;;;;;;;;5.40;5.40;;;;;;;;5072404;28;8860;-78
2023/09/06 09:43:38;;;;;;;;;4.00;3.60;;;;;;;;5073163;28;8836;-80
2023/09/06 09:46:06;;;;;;;;;5.00;5.00;;;;;;;;5074501;28;8872;-82
2023/09/06 09:48:33;;;;;;;;;7.60;7.60;;;;;;;;5073924;28;8860;-79
2023/09/06 09:51:07;;;;;;;;;5.40;5.40;;;;;;;;5073959;28;8966;-80
2023/09/06 09:53:35;;;;;;;;;4.80;4.80;;;;;;;;5069296;28;8855;-79
2023/09/06 09:56:07;;;;;;;;;5.60;4.00;;;;;;;;5068624;28;8880;-79
2023/09/06 09:58:35;;;;;;;;;4.80;4.60;;;;;;;;5069800;28;8976;-80
2023/09/06 10:01:05;;;;;;;;;4.40;4.40;;;;;;;;5069389;28;8804;-79
2023/09/06 10:03:34;;;;;;;;;6.40;6.40;;;;;;;;5070253;28;8848;-81
2023/09/06 10:06:04;;;;;;;;;4.40;4.40;;;;;;;;5069263;28;8832;-79
2023/09/06 10:08:35;;;;;;;;;4.00;4.00;;;;;;;;5069016;28;8856;-79
2023/09/06 10:11:07;;;;;;;;;4.00;4.00;;;;;;;;5069126;28;8844;-81
2023/09/06 10:13:37;;;;;;;;;2.40;2.40;;;;;;;;5069341;28;8848;-80
2023/09/06 10:16:05;;;;;;;;;5.00;5.00;;;;;;;;5068711;28;8863;-80
2023/09/06 10:18:34;;;;;;;;;5.00;5.00;;;;;;;;5057216;28;8850;-83
2023/09/06 10:21:04;;;;;;;;;5.00;5.00;;;;;;;;5069582;28;8864;-80
2023/09/06 10:23:34;;;;;;;;;4.80;4.80;;;;;;;;5068103;28;8927;-84
2023/09/06 10:26:03;;;;;;;;;5.00;5.00;;;;;;;;5068979;28;8852;-84
2023/09/06 10:28:33;;;;;;;;;4.80;4.80;;;;;;;;5067929;28;9623;-81
2023/09/06 10:31:07;;;;;;;;;4.20;4.20;;;;;;;;5068374;28;8780;-81
2023/09/06 10:33:59;;;;;;;;;4.60;4.60;;;;;;;;5068540;28;8962;-80
2023/09/06 10:36:28;;;;;;;;;4.80;4.80;;;;;;;;5068468;28;8869;-82
2023/09/06 10:39:18;;;;;;;;;4.20;4.00;;;;;;;;5068479;28;8920;-80
2023/09/06 10:42:16;;;;;;;;;3.20;3.20;;;;;;;;5070549;28;8861;-80
2023/09/06 10:45:10;;;;;;;;;4.20;4.20;;;;;;;;5072004;28;9260;-80
2023/09/06 10:47:38;;;;;;;;;5.20;5.20;;;;;;;;5054232;28;8873;-91
2023/09/06 10:50:12;;;;;;;;;4.20;4.20;;;;;;;;5059072;28;8870;-80
2023/09/06 10:52:42;;;;;;;;;4.80;4.80;;;;;;;;5059651;28;8969;-85
2023/09/06 10:55:20;;;;;;;;;5.40;5.40;;;;;;;;5076633;28;9707;-84
2023/09/06 10:57:54;;;;;;;;;3.80;3.80;;;;;;;;5062915;28;8843;-84
2023/09/06 11:00:25;;;;;;;;;5.40;5.00;;;;;;;;5067457;28;9742;-83
2023/09/06 11:03:17;;;;;;;;;3.40;3.40;;;;;;;;5055454;28;8865;-84
2023/09/06 11:05:46;;;;;;;;;6.00;5.40;;;;;;;;5067471;28;8849;-81
2023/09/06 11:08:29;;;;;;;;;6.00;6.00;;;;;;;;5068954;28;8843;-84
2023/09/06 11:11:01;;;;;;;;;5.00;5.00;;;;;;;;5068681;28;8966;-83
2023/09/06 11:13:33;;;;;;;;;5.00;5.00;;;;;;;;5069288;28;8925;-81
2023/09/06 11:16:03;;;;;;;;;4.80;4.80;;;;;;;;5078317;28;8843;-87
2023/09/06 11:18:32;;;;;;;;;5.20;5.20;;;;;;;;5068890;28;8850;-85
2023/09/06 11:21:00;;;;;;;;;4.80;4.80;;;;;;;;5063077;28;8886;-83
2023/09/06 11:23:30;;;;;;;;;4.00;4.00;;;;;;;;5073256;28;8868;-83
2023/09/06 11:25:58;;;;;;;;;4.20;4.20;;;;;;;;5069952;28;8872;-82
2023/09/06 11:28:28;;;;;;;;;6.00;6.00;;;;;;;;5068205;28;9607;-84
2023/09/06 11:30:58;;;;;;;;;7.00;7.00;;;;;;;;5062407;28;8853;-84
2023/09/06 11:33:29;;;;;;;;;5.20;5.20;;;;;;;;5062039;28;8948;-84
2023/09/06 11:35:58;;;;;;;;;4.60;4.60;;;;;;;;5062121;28;8871;-82
2023/09/06 11:38:30;;;;;;;;;5.40;5.40;;;;;;;;5061493;28;8857;-83
2023/09/06 11:41:03;;;;;;;;;6.00;6.00;;;;;;;;5056124;28;8893;-83
2023/09/06 11:43:35;;;;;;;;;4.60;4.60;;;;;;;;5056240;28;8832;-81
2023/09/06 11:46:03;;;;;;;;;6.80;5.60;;;;;;;;5061150;28;8842;-82
2023/09/06 11:48:34;;;;;;;;;11.60;8.40;;;;;;;;5055282;28;8859;-84
2023/09/06 11:51:08;;;;;;;;;6.80;6.80;;;;;;;;5063482;28;8855;-82
2023/09/06 11:53:41;;;;;;;;;5.80;5.80;;;;;;;;5067984;28;8891;-80
2023/09/06 11:56:13;;;;;;;;;5.40;3.40;;;;;;;;5068561;28;8864;-82
2023/09/06 11:58:49;;;;;;;;;6.20;6.20;;;;;;;;5065337;28;8891;-82
2023/09/06 12:01:20;;;;;;;;;4.40;4.40;;;;;;;;5051559;28;8882;-83
2023/09/06 12:03:48;;;;;;;;;5.00;5.00;;;;;;;;5072139;28;8911;-81
2023/09/06 12:06:16;;;;;;;;;5.60;5.60;;;;;;;;5071240;28;8852;-83
2023/09/06 12:08:52;;;;;;;;;4.80;4.80;;;;;;;;5067514;28;8831;-84
2023/09/06 12:11:24;;;;;;;;;6.00;6.00;;;;;;;;5074315;28;8967;-84
2023/09/06 12:13:54;;;;;;;;;5.00;5.00;;;;;;;;5060543;28;8851;-84
2023/09/06 12:16:23;;;;;;;;;5.00;5.00;;;;;;;;5071550;28;8821;-79
2023/09/06 12:18:52;;;;;;;;;5.00;5.00;;;;;;;;5071357;28;8853;-80
2023/09/06 12:21:21;;;;;;;;;3.80;3.80;;;;;;;;5071466;28;8935;-81
2023/09/06 12:23:51;;;;;;;;;9.00;9.00;;;;;;;;5070227;28;8926;-82
2023/09/06 12:26:20;;;;;;;;;5.75;4.50;;;;;;;;5065277;28;9015;-83
2023/09/06 12:28:48;;;;;;;;;3.00;3.00;;;;;;;;5067244;28;8858;-84
2023/09/06 12:31:15;;;;;;;;;4.25;4.25;;;;;;;;5062411;28;8873;-81
2023/09/06 12:33:45;;;;;;;;;3.00;3.00;;;;;;;;5069669;28;8850;-81
2023/09/06 12:36:13;;;;;;;;;3.75;3.75;;;;;;;;5070880;28;8871;-80
2023/09/06 12:38:40;;;;;;;;;4.25;4.25;;;;;;;;5071952;28;8863;-80
2023/09/06 12:41:09;;;;;;;;;3.00;3.00;;;;;;;;5073891;28;8872;-81
2023/09/06 12:43:37;;;;;;;;;1.25;1.25;;;;;;;;5070869;28;8844;-81
2023/09/06 12:46:11;;;;;;;;;2.75;2.75;;;;;;;;5071064;28;9657;-81
2023/09/06 12:48:38;;;;;;;;;4.00;4.00;;;;;;;;5070697;28;8856;-81
2023/09/06 12:51:07;;;;;;;;;4.40;3.20;;;;;;;;5071980;28;9737;-81
2023/09/06 12:53:34;;;;;;;;;3.25;3.25;;;;;;;;5073190;28;8860;-81
2023/09/06 12:56:02;;;;;;;;;3.25;3.25;;;;;;;;5073761;28;8949;-81
2023/09/06 12:58:31;;;;;;;;;3.00;3.00;;;;;;;;5073224;28;8871;-81
2023/09/06 13:00:58;;;;;;;;;3.00;3.00;;;;;;;;5074270;28;8788;-80
2023/09/06 13:03:25;;;;;;;;;3.50;3.00;;;;;;;;5070878;28;8844;-82
2023/09/06 13:05:52;;;;;;;;;3.00;3.00;;;;;;;;5072343;28;8946;-82
2023/09/06 13:08:23;;;;;;;;;2.50;2.50;;;;;;;;5070969;28;8840;-80
2023/09/06 13:10:50;;;;;;;;;3.00;3.00;;;;;;;;5069458;28;9238;-81
2023/09/06 13:13:17;;;;;;;;;2.50;2.50;;;;;;;;5070341;28;8893;-81
2023/09/06 13:15:46;;;;;;;;;2.00;2.00;;;;;;;;5070613;28;8963;-82
2023/09/06 13:18:13;;;;;;;;;2.75;1.75;;;;;;;;5072491;28;8864;-83
2023/09/06 13:20:41;;;;;;;;;2.50;2.50;;;;;;;;5070981;28;8890;-83
2023/09/06 13:23:08;;;;;;;;;1.00;1.00;;;;;;;;5070071;28;8868;-81
2023/09/06 13:25:36;;;;;;;;;2.00;2.00;;;;;;;;5069850;28;8866;-83
2023/09/06 13:28:05;;;;;;;;;2.25;2.25;;;;;;;;5071182;28;8860;-81
2023/09/06 13:30:32;;;;;;;;;2.00;2.00;;;;;;;;5069202;28;8816;-81
2023/09/06 13:33:01;;;;;;;;;2.00;2.00;;;;;;;;5070365;28;9691;-82
2023/09/06 13:35:28;;;;;;;;;1.00;1.00;;;;;;;;5069003;28;9619;-82
2023/09/06 13:37:55;;;;;;;;;2.00;2.00;;;;;;;;5069761;28;8860;-81
2023/09/06 13:40:22;;;;;;;;;1.75;1.75;;;;;;;;5068631;28;8852;-81
2023/09/06 13:42:49;;;;;;;;;1.75;1.75;;;;;;;;5069949;28;8868;-81
2023/09/06 13:45:17;;;;;;;;;1.00;1.00;;;;;;;;5068799;28;8870;-81
2023/09/06 13:47:44;;;;;;;;;1.00;1.00;;;;;;;;5069759;28;8953;-81
2023/09/06 13:50:13;;;;;;;;;2.75;2.75;;;;;;;;5069301;28;9742;-81
2023/09/06 13:52:40;;;;;;;;;1.00;1.00;;;;;;;;5069328;28;8875;-83
2023/09/06 13:55:08;;;;;;;;;4.75;4.00;;;;;;;;5069497;28;8962;-81
2023/09/06 13:57:35;;;;;;;;;2.00;2.00;;;;;;;;5069796;28;8953;-80
2023/09/06 14:00:05;;;;;;;;;2.00;2.00;;;;;;;;5069706;28;8852;-82
2023/09/06 14:02:34;;;;;;;;;1.75;1.75;;;;;;;;5083460;28;8802;-80
2023/09/06 14:05:03;;;;;;;;;1.50;1.50;;;;;;;;5057188;28;8849;-80
2023/09/06 14:07:32;;;;;;;;;2.75;2.00;;;;;;;;5069027;28;8998;-80
2023/09/06 14:09:59;;;;;;;;;2.00;2.00;;;;;;;;5069568;28;8876;-80
2023/09/06 14:12:27;;;;;;;;;1.00;1.00;;;;;;;;5068920;28;8844;-82
2023/09/06 14:14:56;;;;;;;;;1.00;1.00;;;;;;;;5069588;28;8860;-83
2023/09/06 14:17:23;;;;;;;;;1.50;1.50;;;;;;;;5069386;28;8852;-86
2023/09/06 14:19:51;;;;;;;;;1.00;1.00;;;;;;;;5070704;28;8844;-83
2023/09/06 14:22:20;;;;;;;;;2.00;2.00;;;;;;;;5071333;28;8832;-83
2023/09/06 14:24:49;;;;;;;;;1.25;1.25;;;;;;;;5073623;28;8864;-82
2023/09/06 14:27:18;;;;;;;;;1.25;1.25;;;;;;;;5075360;28;8829;-82
2023/09/06 14:29:46;;;;;;;;;1.00;1.00;;;;;;;;5075749;28;8910;-83
2023/09/06 14:32:14;;;;;;;;;2.00;2.00;;;;;;;;5074407;28;8884;-83
2023/09/06 14:34:41;;;;;;;;;2.00;2.00;;;;;;;;5073464;28;8880;-83
2023/09/06 14:37:08;;;;;;;;;1.75;1.75;;;;;;;;5069465;28;8841;-83
2023/09/06 14:39:37;;;;;;;;;4.00;2.50;;;;;;;;5068205;28;8840;-82
2023/09/06 14:42:07;;;;;;;;;2.00;2.00;;;;;;;;5068506;28;8871;-83
2023/09/06 14:44:34;;;;;;;;;2.75;2.75;;;;;;;;5068370;28;8929;-83
2023/09/06 14:47:04;;;;;;;;;3.25;2.00;;;;;;;;5068439;28;8840;-85
2023/09/06 14:49:34;;;;;;;;;3.50;1.50;;;;;;;;5068487;28;9631;-81
2023/09/06 14:52:04;;;;;;;;;1.75;1.75;;;;;;;;5068077;28;8848;-82
2023/09/06 14:54:34;;;;;;;;;1.75;1.75;;;;;;;;5067330;28;9761;-85
2023/09/06 14:57:01;;;;;;;;;0.75;0.75;;;;;;;;5063568;28;8876;-85
2023/09/06 14:59:30;;;;;;;;;2.25;1.00;;;;;;;;5068888;28;8833;-82
2023/09/06 15:02:00;;;;;;;;;2.50;2.50;;;;;;;;5068242;28;8809;-76